sensor_id;sensor_type;location;lat;lon;timestamp;P1;durP1;ratioP1;P2;durP2;ratioP2
31910;SDS011;18457;52.432;16.914;2023-05-07T00:01:04;17.90;;;9.70;;
31910;SDS011;18457;52.432;16.914;2023-05-07T00:03:36;18.80;;;10.10;;
31910;SDS011;18457;52.432;16.914;2023-05-07T00:06:08;12.10;;;7.90;;
31910;SDS011;18457;52.432;16.914;2023-05-07T00:08:41;14.30;;;9.90;;
31910;SDS011;18457;52.432;16.914;2023-05-07T00:11:13;18.20;;;9.50;;
31910;SDS011;18457;52.432;16.914;2023-05-07T00:13:45;20.70;;;11.20;;
31910;SDS011;18457;52.432;16.914;2023-05-07T00:16:17;17.80;;;10.70;;
31910;SDS011;18457;52.432;16.914;2023-05-07T00:18:49;19.80;;;11.40;;
31910;SDS011;18457;52.432;16.914;2023-05-07T00:21:20;16.50;;;10.40;;
31910;SDS011;18457;52.432;16.914;2023-05-07T00:23:55;17.70;;;10.60;;
31910;SDS011;18457;52.432;16.914;2023-05-07T00:26:27;17.40;;;10.80;;
31910;SDS011;18457;52.432;16.914;2023-05-07T00:28:59;16.10;;;10.20;;
31910;SDS011;18457;52.432;16.914;2023-05-07T00:31:30;16.10;;;10.40;;
31910;SDS011;18457;52.432;16.914;2023-05-07T00:34:02;21.30;;;12.90;;
31910;SDS011;18457;52.432;16.914;2023-05-07T00:36:34;17.70;;;10.70;;
31910;SDS011;18457;52.432;16.914;2023-05-07T00:39:06;15.40;;;10.50;;
31910;SDS011;18457;52.432;16.914;2023-05-07T00:41:38;13.30;;;7.70;;
31910;SDS011;18457;52.432;16.914;2023-05-07T00:44:10;17.60;;;9.80;;
31910;SDS011;18457;52.432;16.914;2023-05-07T00:46:42;14.40;;;10.70;;
31910;SDS011;18457;52.432;16.914;2023-05-07T00:49:14;20.00;;;11.40;;
31910;SDS011;18457;52.432;16.914;2023-05-07T00:51:47;20.00;;;10.30;;
31910;SDS011;18457;52.432;16.914;2023-05-07T00:54:19;15.50;;;10.60;;
31910;SDS011;18457;52.432;16.914;2023-05-07T00:56:52;15.50;;;10.40;;
31910;SDS011;18457;52.432;16.914;2023-05-07T00:59:24;16.70;;;10.70;;
31910;SDS011;18457;52.432;16.914;2023-05-07T01:01:56;16.50;;;10.80;;
31910;SDS011;18457;52.432;16.914;2023-05-07T01:04:29;16.70;;;10.80;;
31910;SDS011;18457;52.432;16.914;2023-05-07T01:07:01;17.90;;;11.20;;
31910;SDS011;18457;52.432;16.914;2023-05-07T01:09:33;18.30;;;11.20;;
31910;SDS011;18457;52.432;16.914;2023-05-07T01:12:07;18.70;;;11.00;;
31910;SDS011;18457;52.432;16.914;2023-05-07T01:14:40;17.70;;;11.60;;
31910;SDS011;18457;52.432;16.914;2023-05-07T01:17:12;12.00;;;8.10;;
31910;SDS011;18457;52.432;16.914;2023-05-07T01:19:46;17.30;;;10.60;;
31910;SDS011;18457;52.432;16.914;2023-05-07T01:25:01;17.60;;;10.30;;
31910;SDS011;18457;52.432;16.914;2023-05-07T01:27:33;16.70;;;10.80;;
31910;SDS011;18457;52.432;16.914;2023-05-07T01:32:40;18.40;;;10.30;;
31910;SDS011;18457;52.432;16.914;2023-05-07T01:35:17;17.40;;;10.80;;
31910;SDS011;18457;52.432;16.914;2023-05-07T01:37:52;18.20;;;10.50;;
31910;SDS011;18457;52.432;16.914;2023-05-07T01:40:24;19.60;;;10.90;;
31910;SDS011;18457;52.432;16.914;2023-05-07T01:45:27;17.80;;;10.90;;
31910;SDS011;18457;52.432;16.914;2023-05-07T01:50:31;23.30;;;11.80;;
31910;SDS011;18457;52.432;16.914;2023-05-07T01:53:04;16.20;;;10.70;;
31910;SDS011;18457;52.432;16.914;2023-05-07T01:55:36;15.20;;;10.30;;
31910;SDS011;18457;52.432;16.914;2023-05-07T01:58:09;16.50;;;9.70;;
31910;SDS011;18457;52.432;16.914;2023-05-07T02:00:41;15.70;;;10.70;;
31910;SDS011;18457;52.432;16.914;2023-05-07T02:03:13;21.40;;;10.70;;
31910;SDS011;18457;52.432;16.914;2023-05-07T02:05:53;17.70;;;10.60;;
31910;SDS011;18457;52.432;16.914;2023-05-07T02:08:40;16.00;;;10.60;;
31910;SDS011;18457;52.432;16.914;2023-05-07T02:11:13;19.50;;;10.70;;
31910;SDS011;18457;52.432;16.914;2023-05-07T02:13:45;21.50;;;10.50;;
31910;SDS011;18457;52.432;16.914;2023-05-07T02:16:17;20.60;;;10.00;;
31910;SDS011;18457;52.432;16.914;2023-05-07T02:18:49;19.50;;;10.80;;
31910;SDS011;18457;52.432;16.914;2023-05-07T02:21:21;19.50;;;11.00;;
31910;SDS011;18457;52.432;16.914;2023-05-07T02:23:52;22.00;;;11.70;;
31910;SDS011;18457;52.432;16.914;2023-05-07T02:26:25;21.30;;;10.90;;
31910;SDS011;18457;52.432;16.914;2023-05-07T02:28:57;26.40;;;10.70;;
31910;SDS011;18457;52.432;16.914;2023-05-07T02:31:29;18.50;;;11.20;;
31910;SDS011;18457;52.432;16.914;2023-05-07T02:34:03;20.90;;;10.30;;
31910;SDS011;18457;52.432;16.914;2023-05-07T02:36:35;16.70;;;10.90;;
31910;SDS011;18457;52.432;16.914;2023-05-07T02:39:11;19.70;;;11.50;;
31910;SDS011;18457;52.432;16.914;2023-05-07T02:41:44;18.60;;;12.00;;
31910;SDS011;18457;52.432;16.914;2023-05-07T02:44:16;12.70;;;8.50;;
31910;SDS011;18457;52.432;16.914;2023-05-07T02:46:49;19.20;;;11.50;;
31910;SDS011;18457;52.432;16.914;2023-05-07T02:49:21;16.90;;;10.60;;
31910;SDS011;18457;52.432;16.914;2023-05-07T02:51:53;18.70;;;11.80;;
31910;SDS011;18457;52.432;16.914;2023-05-07T02:54:25;25.80;;;12.20;;
31910;SDS011;18457;52.432;16.914;2023-05-07T02:56:57;25.60;;;11.10;;
31910;SDS011;18457;52.432;16.914;2023-05-07T02:59:29;18.50;;;12.20;;
31910;SDS011;18457;52.432;16.914;2023-05-07T03:02:01;18.10;;;11.60;;
31910;SDS011;18457;52.432;16.914;2023-05-07T03:04:33;23.20;;;11.30;;
31910;SDS011;18457;52.432;16.914;2023-05-07T03:07:05;21.50;;;11.00;;
31910;SDS011;18457;52.432;16.914;2023-05-07T03:09:37;20.20;;;11.60;;
31910;SDS011;18457;52.432;16.914;2023-05-07T03:12:09;21.50;;;11.50;;
31910;SDS011;18457;52.432;16.914;2023-05-07T03:14:41;23.00;;;12.20;;
31910;SDS011;18457;52.432;16.914;2023-05-07T03:17:12;26.10;;;11.20;;
31910;SDS011;18457;52.432;16.914;2023-05-07T03:19:45;18.30;;;11.00;;
31910;SDS011;18457;52.432;16.914;2023-05-07T03:22:17;20.40;;;11.50;;
31910;SDS011;18457;52.432;16.914;2023-05-07T03:24:49;19.40;;;11.50;;
31910;SDS011;18457;52.432;16.914;2023-05-07T03:27:21;15.50;;;8.10;;
31910;SDS011;18457;52.432;16.914;2023-05-07T03:29:53;22.90;;;11.90;;
31910;SDS011;18457;52.432;16.914;2023-05-07T03:32:25;19.90;;;11.60;;
31910;SDS011;18457;52.432;16.914;2023-05-07T03:34:57;16.20;;;7.90;;
31910;SDS011;18457;52.432;16.914;2023-05-07T03:37:29;18.40;;;11.30;;
31910;SDS011;18457;52.432;16.914;2023-05-07T03:40:01;17.20;;;10.70;;
31910;SDS011;18457;52.432;16.914;2023-05-07T03:42:35;18.90;;;10.50;;
31910;SDS011;18457;52.432;16.914;2023-05-07T03:45:08;17.20;;;9.60;;
31910;SDS011;18457;52.432;16.914;2023-05-07T03:47:42;20.40;;;10.50;;
31910;SDS011;18457;52.432;16.914;2023-05-07T03:50:17;23.00;;;10.00;;
31910;SDS011;18457;52.432;16.914;2023-05-07T03:52:49;16.80;;;10.30;;
31910;SDS011;18457;52.432;16.914;2023-05-07T03:55:22;12.20;;;6.60;;
31910;SDS011;18457;52.432;16.914;2023-05-07T03:57:57;16.30;;;9.70;;
31910;SDS011;18457;52.432;16.914;2023-05-07T04:00:29;21.40;;;10.00;;
31910;SDS011;18457;52.432;16.914;2023-05-07T04:03:08;16.40;;;10.00;;
31910;SDS011;18457;52.432;16.914;2023-05-07T04:05:40;20.40;;;11.00;;
31910;SDS011;18457;52.432;16.914;2023-05-07T04:08:12;22.40;;;10.20;;
31910;SDS011;18457;52.432;16.914;2023-05-07T04:10:47;17.90;;;10.00;;
31910;SDS011;18457;52.432;16.914;2023-05-07T04:13:24;17.60;;;10.00;;
31910;SDS011;18457;52.432;16.914;2023-05-07T04:15:56;17.20;;;10.50;;
31910;SDS011;18457;52.432;16.914;2023-05-07T04:18:29;18.50;;;9.90;;
31910;SDS011;18457;52.432;16.914;2023-05-07T04:21:01;16.00;;;9.80;;
31910;SDS011;18457;52.432;16.914;2023-05-07T04:23:35;18.30;;;10.50;;
31910;SDS011;18457;52.432;16.914;2023-05-07T04:26:09;14.90;;;10.50;;
31910;SDS011;18457;52.432;16.914;2023-05-07T04:28:44;19.30;;;11.30;;
31910;SDS011;18457;52.432;16.914;2023-05-07T04:31:16;17.20;;;11.40;;
31910;SDS011;18457;52.432;16.914;2023-05-07T04:33:51;21.00;;;11.20;;
31910;SDS011;18457;52.432;16.914;2023-05-07T04:36:23;13.80;;;8.40;;
31910;SDS011;18457;52.432;16.914;2023-05-07T04:39:01;19.10;;;10.50;;
31910;SDS011;18457;52.432;16.914;2023-05-07T04:41:34;17.60;;;10.90;;
31910;SDS011;18457;52.432;16.914;2023-05-07T04:44:07;19.50;;;12.00;;
31910;SDS011;18457;52.432;16.914;2023-05-07T04:46:39;24.10;;;12.00;;
31910;SDS011;18457;52.432;16.914;2023-05-07T04:49:12;21.10;;;11.70;;
31910;SDS011;18457;52.432;16.914;2023-05-07T04:51:44;19.20;;;12.10;;
31910;SDS011;18457;52.432;16.914;2023-05-07T04:54:18;18.00;;;11.10;;
31910;SDS011;18457;52.432;16.914;2023-05-07T04:56:50;20.50;;;11.60;;
31910;SDS011;18457;52.432;16.914;2023-05-07T04:59:22;23.80;;;11.70;;
31910;SDS011;18457;52.432;16.914;2023-05-07T05:01:54;21.60;;;11.10;;
31910;SDS011;18457;52.432;16.914;2023-05-07T05:06:57;19.00;;;10.30;;
31910;SDS011;18457;52.432;16.914;2023-05-07T05:09:29;14.50;;;9.50;;
31910;SDS011;18457;52.432;16.914;2023-05-07T05:14:33;16.20;;;8.70;;
31910;SDS011;18457;52.432;16.914;2023-05-07T05:17:05;12.50;;;8.60;;
31910;SDS011;18457;52.432;16.914;2023-05-07T05:19:37;11.50;;;7.60;;
31910;SDS011;18457;52.432;16.914;2023-05-07T05:22:09;16.60;;;9.80;;
31910;SDS011;18457;52.432;16.914;2023-05-07T05:24:42;12.00;;;7.10;;
31910;SDS011;18457;52.432;16.914;2023-05-07T05:27:13;11.50;;;8.00;;
31910;SDS011;18457;52.432;16.914;2023-05-07T05:29:45;14.00;;;8.20;;
31910;SDS011;18457;52.432;16.914;2023-05-07T05:32:18;15.30;;;8.10;;
31910;SDS011;18457;52.432;16.914;2023-05-07T05:34:50;14.20;;;8.70;;
31910;SDS011;18457;52.432;16.914;2023-05-07T05:37:22;10.40;;;6.00;;
31910;SDS011;18457;52.432;16.914;2023-05-07T05:42:27;14.80;;;8.20;;
31910;SDS011;18457;52.432;16.914;2023-05-07T05:44:59;11.00;;;6.90;;
31910;SDS011;18457;52.432;16.914;2023-05-07T05:47:31;11.50;;;7.20;;
31910;SDS011;18457;52.432;16.914;2023-05-07T05:50:04;11.50;;;7.20;;
31910;SDS011;18457;52.432;16.914;2023-05-07T05:52:39;10.80;;;6.90;;
31910;SDS011;18457;52.432;16.914;2023-05-07T05:55:11;16.50;;;7.30;;
31910;SDS011;18457;52.432;16.914;2023-05-07T05:57:43;11.20;;;6.60;;
31910;SDS011;18457;52.432;16.914;2023-05-07T06:00:16;12.70;;;6.40;;
31910;SDS011;18457;52.432;16.914;2023-05-07T06:02:57;10.40;;;6.10;;
31910;SDS011;18457;52.432;16.914;2023-05-07T06:05:29;7.00;;;4.50;;
31910;SDS011;18457;52.432;16.914;2023-05-07T06:08:00;10.30;;;5.20;;
31910;SDS011;18457;52.432;16.914;2023-05-07T06:10:34;7.40;;;5.30;;
31910;SDS011;18457;52.432;16.914;2023-05-07T06:13:08;8.70;;;5.30;;
31910;SDS011;18457;52.432;16.914;2023-05-07T06:15:39;7.10;;;3.40;;
31910;SDS011;18457;52.432;16.914;2023-05-07T06:18:12;7.10;;;4.20;;
31910;SDS011;18457;52.432;16.914;2023-05-07T06:20:44;6.20;;;3.90;;
31910;SDS011;18457;52.432;16.914;2023-05-07T06:23:22;5.60;;;3.60;;
31910;SDS011;18457;52.432;16.914;2023-05-07T06:25:54;7.50;;;4.00;;
31910;SDS011;18457;52.432;16.914;2023-05-07T06:28:29;6.30;;;3.50;;
31910;SDS011;18457;52.432;16.914;2023-05-07T06:31:16;7.70;;;4.10;;
31910;SDS011;18457;52.432;16.914;2023-05-07T06:33:56;6.30;;;4.10;;
31910;SDS011;18457;52.432;16.914;2023-05-07T06:36:34;6.70;;;3.80;;
31910;SDS011;18457;52.432;16.914;2023-05-07T06:39:19;6.00;;;3.70;;
31910;SDS011;18457;52.432;16.914;2023-05-07T06:41:53;6.80;;;3.70;;
31910;SDS011;18457;52.432;16.914;2023-05-07T06:44:28;5.90;;;3.90;;
31910;SDS011;18457;52.432;16.914;2023-05-07T06:47:07;10.10;;;3.70;;
31910;SDS011;18457;52.432;16.914;2023-05-07T06:49:41;7.90;;;3.50;;
31910;SDS011;18457;52.432;16.914;2023-05-07T06:52:15;4.80;;;2.90;;
31910;SDS011;18457;52.432;16.914;2023-05-07T06:54:47;6.90;;;3.30;;
31910;SDS011;18457;52.432;16.914;2023-05-07T06:57:20;5.60;;;3.00;;
31910;SDS011;18457;52.432;16.914;2023-05-07T06:59:53;5.00;;;2.80;;
31910;SDS011;18457;52.432;16.914;2023-05-07T07:02:25;3.00;;;2.10;;
31910;SDS011;18457;52.432;16.914;2023-05-07T07:04:57;6.00;;;3.30;;
31910;SDS011;18457;52.432;16.914;2023-05-07T07:07:30;6.30;;;2.50;;
31910;SDS011;18457;52.432;16.914;2023-05-07T07:10:02;5.50;;;2.80;;
31910;SDS011;18457;52.432;16.914;2023-05-07T07:12:34;4.40;;;2.70;;
31910;SDS011;18457;52.432;16.914;2023-05-07T07:15:07;4.80;;;3.00;;
31910;SDS011;18457;52.432;16.914;2023-05-07T07:17:40;11.50;;;2.50;;
31910;SDS011;18457;52.432;16.914;2023-05-07T07:20:12;3.80;;;2.80;;
31910;SDS011;18457;52.432;16.914;2023-05-07T07:22:45;4.20;;;2.30;;
31910;SDS011;18457;52.432;16.914;2023-05-07T07:25:18;5.70;;;2.80;;
31910;SDS011;18457;52.432;16.914;2023-05-07T07:27:50;6.20;;;2.90;;
31910;SDS011;18457;52.432;16.914;2023-05-07T07:30:23;4.80;;;2.60;;
31910;SDS011;18457;52.432;16.914;2023-05-07T07:32:56;4.80;;;2.30;;
31910;SDS011;18457;52.432;16.914;2023-05-07T07:35:33;4.80;;;2.60;;
31910;SDS011;18457;52.432;16.914;2023-05-07T07:38:06;4.50;;;2.20;;
31910;SDS011;18457;52.432;16.914;2023-05-07T07:40:39;5.50;;;2.60;;
31910;SDS011;18457;52.432;16.914;2023-05-07T07:43:12;5.00;;;2.00;;
31910;SDS011;18457;52.432;16.914;2023-05-07T07:45:44;6.10;;;2.10;;
31910;SDS011;18457;52.432;16.914;2023-05-07T07:48:16;4.30;;;2.40;;
31910;SDS011;18457;52.432;16.914;2023-05-07T07:50:49;3.50;;;2.20;;
31910;SDS011;18457;52.432;16.914;2023-05-07T07:53:21;4.60;;;2.00;;
31910;SDS011;18457;52.432;16.914;2023-05-07T07:58:29;5.10;;;2.70;;
31910;SDS011;18457;52.432;16.914;2023-05-07T08:01:01;3.00;;;2.20;;
31910;SDS011;18457;52.432;16.914;2023-05-07T08:03:34;5.00;;;2.40;;
31910;SDS011;18457;52.432;16.914;2023-05-07T08:06:08;7.10;;;2.50;;
31910;SDS011;18457;52.432;16.914;2023-05-07T08:08:40;3.30;;;1.90;;
31910;SDS011;18457;52.432;16.914;2023-05-07T08:11:12;4.90;;;2.00;;
31910;SDS011;18457;52.432;16.914;2023-05-07T08:13:45;3.70;;;2.80;;
31910;SDS011;18457;52.432;16.914;2023-05-07T08:16:17;5.60;;;2.80;;
31910;SDS011;18457;52.432;16.914;2023-05-07T08:18:53;5.00;;;2.50;;
31910;SDS011;18457;52.432;16.914;2023-05-07T08:21:25;4.10;;;2.50;;
31910;SDS011;18457;52.432;16.914;2023-05-07T08:23:57;4.90;;;2.60;;
31910;SDS011;18457;52.432;16.914;2023-05-07T08:26:30;4.60;;;2.70;;
31910;SDS011;18457;52.432;16.914;2023-05-07T08:29:02;5.80;;;2.50;;
31910;SDS011;18457;52.432;16.914;2023-05-07T08:31:34;3.60;;;2.30;;
31910;SDS011;18457;52.432;16.914;2023-05-07T08:34:07;4.30;;;2.60;;
31910;SDS011;18457;52.432;16.914;2023-05-07T08:36:41;5.00;;;3.40;;
31910;SDS011;18457;52.432;16.914;2023-05-07T08:39:16;4.00;;;2.20;;
31910;SDS011;18457;52.432;16.914;2023-05-07T08:41:50;3.80;;;2.60;;
31910;SDS011;18457;52.432;16.914;2023-05-07T08:44:26;3.80;;;2.50;;
31910;SDS011;18457;52.432;16.914;2023-05-07T08:47:03;4.30;;;2.90;;
31910;SDS011;18457;52.432;16.914;2023-05-07T08:49:38;3.10;;;2.40;;
31910;SDS011;18457;52.432;16.914;2023-05-07T08:52:10;7.80;;;2.70;;
31910;SDS011;18457;52.432;16.914;2023-05-07T08:54:43;5.20;;;2.70;;
31910;SDS011;18457;52.432;16.914;2023-05-07T08:57:15;5.70;;;2.40;;
31910;SDS011;18457;52.432;16.914;2023-05-07T08:59:48;3.90;;;2.80;;
31910;SDS011;18457;52.432;16.914;2023-05-07T09:02:21;4.50;;;2.50;;
31910;SDS011;18457;52.432;16.914;2023-05-07T09:07:25;4.20;;;2.80;;
31910;SDS011;18457;52.432;16.914;2023-05-07T09:09:57;5.50;;;3.20;;
31910;SDS011;18457;52.432;16.914;2023-05-07T09:12:31;5.30;;;2.90;;
31910;SDS011;18457;52.432;16.914;2023-05-07T09:15:06;10.70;;;3.70;;
31910;SDS011;18457;52.432;16.914;2023-05-07T09:17:40;7.30;;;3.20;;
31910;SDS011;18457;52.432;16.914;2023-05-07T09:20:14;5.60;;;2.90;;
31910;SDS011;18457;52.432;16.914;2023-05-07T09:22:48;4.20;;;3.60;;
31910;SDS011;18457;52.432;16.914;2023-05-07T09:25:28;5.60;;;3.30;;
31910;SDS011;18457;52.432;16.914;2023-05-07T09:28:04;5.00;;;3.30;;
31910;SDS011;18457;52.432;16.914;2023-05-07T09:30:39;4.20;;;3.20;;
31910;SDS011;18457;52.432;16.914;2023-05-07T09:33:11;3.50;;;3.00;;
31910;SDS011;18457;52.432;16.914;2023-05-07T09:35:46;5.80;;;2.80;;
31910;SDS011;18457;52.432;16.914;2023-05-07T09:38:21;3.30;;;2.50;;
31910;SDS011;18457;52.432;16.914;2023-05-07T09:41:04;4.00;;;3.10;;
31910;SDS011;18457;52.432;16.914;2023-05-07T09:43:42;6.80;;;2.80;;
31910;SDS011;18457;52.432;16.914;2023-05-07T09:46:15;4.80;;;3.00;;
31910;SDS011;18457;52.432;16.914;2023-05-07T09:48:52;4.30;;;2.50;;
31910;SDS011;18457;52.432;16.914;2023-05-07T09:51:29;6.00;;;2.90;;
31910;SDS011;18457;52.432;16.914;2023-05-07T09:54:07;3.70;;;2.80;;
31910;SDS011;18457;52.432;16.914;2023-05-07T09:56:41;7.10;;;3.40;;
31910;SDS011;18457;52.432;16.914;2023-05-07T09:59:15;4.30;;;3.10;;
31910;SDS011;18457;52.432;16.914;2023-05-07T10:01:49;5.20;;;3.60;;
31910;SDS011;18457;52.432;16.914;2023-05-07T10:04:27;3.80;;;3.00;;
31910;SDS011;18457;52.432;16.914;2023-05-07T10:07:00;7.30;;;3.00;;
31910;SDS011;18457;52.432;16.914;2023-05-07T10:09:34;4.10;;;2.90;;
31910;SDS011;18457;52.432;16.914;2023-05-07T10:12:09;3.60;;;3.10;;
31910;SDS011;18457;52.432;16.914;2023-05-07T10:14:41;4.70;;;2.80;;
31910;SDS011;18457;52.432;16.914;2023-05-07T10:17:14;4.70;;;2.70;;
31910;SDS011;18457;52.432;16.914;2023-05-07T10:19:49;7.00;;;3.20;;
31910;SDS011;18457;52.432;16.914;2023-05-07T10:22:23;3.40;;;3.00;;
31910;SDS011;18457;52.432;16.914;2023-05-07T10:24:58;4.20;;;2.90;;
31910;SDS011;18457;52.432;16.914;2023-05-07T10:27:33;3.50;;;2.70;;
31910;SDS011;18457;52.432;16.914;2023-05-07T10:30:10;6.30;;;3.00;;
31910;SDS011;18457;52.432;16.914;2023-05-07T10:35:27;4.80;;;3.00;;
31910;SDS011;18457;52.432;16.914;2023-05-07T10:38:03;4.60;;;3.00;;
31910;SDS011;18457;52.432;16.914;2023-05-07T10:40:38;3.90;;;2.60;;
31910;SDS011;18457;52.432;16.914;2023-05-07T10:43:10;3.80;;;2.70;;
31910;SDS011;18457;52.432;16.914;2023-05-07T10:45:50;4.00;;;2.60;;
31910;SDS011;18457;52.432;16.914;2023-05-07T10:49:07;4.30;;;2.70;;
31910;SDS011;18457;52.432;16.914;2023-05-07T10:52:13;4.60;;;2.50;;
31910;SDS011;18457;52.432;16.914;2023-05-07T10:58:24;3.70;;;2.50;;
31910;SDS011;18457;52.432;16.914;2023-05-07T11:01:17;3.00;;;2.50;;
31910;SDS011;18457;52.432;16.914;2023-05-07T11:04:45;5.10;;;2.50;;
31910;SDS011;18457;52.432;16.914;2023-05-07T11:08:08;2.90;;;2.10;;
31910;SDS011;18457;52.432;16.914;2023-05-07T11:10:48;12.30;;;2.30;;
31910;SDS011;18457;52.432;16.914;2023-05-07T11:13:43;5.10;;;2.90;;
31910;SDS011;18457;52.432;16.914;2023-05-07T11:16:25;6.10;;;3.10;;
31910;SDS011;18457;52.432;16.914;2023-05-07T11:19:11;2.90;;;2.40;;
31910;SDS011;18457;52.432;16.914;2023-05-07T11:21:46;3.10;;;2.30;;
31910;SDS011;18457;52.432;16.914;2023-05-07T11:24:40;4.50;;;2.40;;
31910;SDS011;18457;52.432;16.914;2023-05-07T11:27:14;4.10;;;2.00;;
31910;SDS011;18457;52.432;16.914;2023-05-07T11:29:53;2.90;;;2.00;;
31910;SDS011;18457;52.432;16.914;2023-05-07T11:32:26;5.10;;;2.30;;
31910;SDS011;18457;52.432;16.914;2023-05-07T11:35:00;3.90;;;2.10;;
31910;SDS011;18457;52.432;16.914;2023-05-07T11:37:32;5.20;;;2.40;;
31910;SDS011;18457;52.432;16.914;2023-05-07T11:40:07;4.20;;;2.10;;
31910;SDS011;18457;52.432;16.914;2023-05-07T11:42:40;2.40;;;1.70;;
31910;SDS011;18457;52.432;16.914;2023-05-07T11:45:12;2.50;;;1.90;;
31910;SDS011;18457;52.432;16.914;2023-05-07T11:47:54;3.10;;;2.00;;
31910;SDS011;18457;52.432;16.914;2023-05-07T11:50:26;2.30;;;1.60;;
31910;SDS011;18457;52.432;16.914;2023-05-07T11:52:58;2.50;;;1.80;;
31910;SDS011;18457;52.432;16.914;2023-05-07T11:55:30;5.80;;;2.50;;
31910;SDS011;18457;52.432;16.914;2023-05-07T11:58:02;8.80;;;1.70;;
31910;SDS011;18457;52.432;16.914;2023-05-07T12:00:36;2.60;;;1.90;;
31910;SDS011;18457;52.432;16.914;2023-05-07T12:03:08;7.60;;;2.60;;
31910;SDS011;18457;52.432;16.914;2023-05-07T12:05:41;2.80;;;1.90;;
31910;SDS011;18457;52.432;16.914;2023-05-07T12:08:14;6.70;;;2.80;;
31910;SDS011;18457;52.432;16.914;2023-05-07T12:10:47;4.30;;;2.20;;
31910;SDS011;18457;52.432;16.914;2023-05-07T12:13:21;4.60;;;2.10;;
31910;SDS011;18457;52.432;16.914;2023-05-07T12:15:55;2.50;;;2.00;;
31910;SDS011;18457;52.432;16.914;2023-05-07T12:18:27;3.30;;;2.10;;
31910;SDS011;18457;52.432;16.914;2023-05-07T12:21:00;3.50;;;2.20;;
31910;SDS011;18457;52.432;16.914;2023-05-07T12:23:32;4.30;;;2.80;;
31910;SDS011;18457;52.432;16.914;2023-05-07T12:26:06;7.20;;;2.80;;
31910;SDS011;18457;52.432;16.914;2023-05-07T12:28:38;7.20;;;3.10;;
31910;SDS011;18457;52.432;16.914;2023-05-07T12:31:10;10.20;;;2.60;;
31910;SDS011;18457;52.432;16.914;2023-05-07T12:33:45;3.60;;;2.50;;
31910;SDS011;18457;52.432;16.914;2023-05-07T12:36:16;6.60;;;2.90;;
31910;SDS011;18457;52.432;16.914;2023-05-07T12:38:50;4.20;;;2.50;;
31910;SDS011;18457;52.432;16.914;2023-05-07T12:41:22;6.00;;;2.60;;
31910;SDS011;18457;52.432;16.914;2023-05-07T12:43:58;4.40;;;2.80;;
31910;SDS011;18457;52.432;16.914;2023-05-07T12:46:30;5.50;;;3.00;;
31910;SDS011;18457;52.432;16.914;2023-05-07T12:49:01;5.50;;;3.10;;
31910;SDS011;18457;52.432;16.914;2023-05-07T12:51:35;4.90;;;3.20;;
31910;SDS011;18457;52.432;16.914;2023-05-07T12:54:07;8.00;;;2.50;;
31910;SDS011;18457;52.432;16.914;2023-05-07T12:56:39;3.50;;;2.20;;
31910;SDS011;18457;52.432;16.914;2023-05-07T12:59:11;4.40;;;2.40;;
31910;SDS011;18457;52.432;16.914;2023-05-07T13:01:44;3.10;;;2.50;;
31910;SDS011;18457;52.432;16.914;2023-05-07T13:04:17;4.30;;;2.10;;
31910;SDS011;18457;52.432;16.914;2023-05-07T13:06:50;3.90;;;2.60;;
31910;SDS011;18457;52.432;16.914;2023-05-07T13:09:22;4.20;;;2.60;;
31910;SDS011;18457;52.432;16.914;2023-05-07T13:11:54;6.70;;;3.00;;
31910;SDS011;18457;52.432;16.914;2023-05-07T13:14:25;5.50;;;2.90;;
31910;SDS011;18457;52.432;16.914;2023-05-07T13:16:57;4.00;;;2.50;;
31910;SDS011;18457;52.432;16.914;2023-05-07T13:19:29;6.40;;;2.60;;
31910;SDS011;18457;52.432;16.914;2023-05-07T13:22:01;5.90;;;2.40;;
31910;SDS011;18457;52.432;16.914;2023-05-07T13:24:33;3.00;;;2.50;;
31910;SDS011;18457;52.432;16.914;2023-05-07T13:27:05;4.60;;;2.70;;
31910;SDS011;18457;52.432;16.914;2023-05-07T13:29:37;6.90;;;2.70;;
31910;SDS011;18457;52.432;16.914;2023-05-07T13:32:09;5.60;;;2.40;;
31910;SDS011;18457;52.432;16.914;2023-05-07T13:34:41;4.00;;;2.20;;
31910;SDS011;18457;52.432;16.914;2023-05-07T13:37:13;4.70;;;2.20;;
31910;SDS011;18457;52.432;16.914;2023-05-07T13:39:45;3.80;;;2.40;;
31910;SDS011;18457;52.432;16.914;2023-05-07T13:42:17;4.30;;;2.90;;
31910;SDS011;18457;52.432;16.914;2023-05-07T13:44:49;3.50;;;2.50;;
31910;SDS011;18457;52.432;16.914;2023-05-07T13:47:21;6.10;;;3.00;;
31910;SDS011;18457;52.432;16.914;2023-05-07T13:49:53;7.90;;;2.70;;
31910;SDS011;18457;52.432;16.914;2023-05-07T13:52:24;3.30;;;2.50;;
31910;SDS011;18457;52.432;16.914;2023-05-07T13:54:56;25.70;;;12.50;;
31910;SDS011;18457;52.432;16.914;2023-05-07T13:57:28;12.40;;;2.90;;
31910;SDS011;18457;52.432;16.914;2023-05-07T14:00:00;5.80;;;3.10;;
31910;SDS011;18457;52.432;16.914;2023-05-07T14:02:42;3.40;;;2.80;;
31910;SDS011;18457;52.432;16.914;2023-05-07T14:05:15;4.10;;;2.80;;
31910;SDS011;18457;52.432;16.914;2023-05-07T14:07:48;4.30;;;2.90;;
31910;SDS011;18457;52.432;16.914;2023-05-07T14:10:21;3.30;;;2.80;;
31910;SDS011;18457;52.432;16.914;2023-05-07T14:12:53;5.00;;;2.70;;
31910;SDS011;18457;52.432;16.914;2023-05-07T14:15:24;3.20;;;2.20;;
31910;SDS011;18457;52.432;16.914;2023-05-07T14:17:56;3.90;;;2.70;;
31910;SDS011;18457;52.432;16.914;2023-05-07T14:20:30;3.60;;;2.50;;
31910;SDS011;18457;52.432;16.914;2023-05-07T14:23:02;4.50;;;3.50;;
31910;SDS011;18457;52.432;16.914;2023-05-07T14:25:34;6.60;;;3.10;;
31910;SDS011;18457;52.432;16.914;2023-05-07T14:28:06;6.00;;;2.90;;
31910;SDS011;18457;52.432;16.914;2023-05-07T14:30:38;3.10;;;2.10;;
31910;SDS011;18457;52.432;16.914;2023-05-07T14:33:10;4.70;;;3.30;;
31910;SDS011;18457;52.432;16.914;2023-05-07T14:35:42;7.30;;;2.80;;
31910;SDS011;18457;52.432;16.914;2023-05-07T14:38:18;5.00;;;3.10;;
31910;SDS011;18457;52.432;16.914;2023-05-07T14:40:52;7.10;;;2.80;;
31910;SDS011;18457;52.432;16.914;2023-05-07T14:43:25;5.70;;;3.00;;
31910;SDS011;18457;52.432;16.914;2023-05-07T14:45:56;3.40;;;2.60;;
31910;SDS011;18457;52.432;16.914;2023-05-07T14:48:29;8.60;;;3.30;;
31910;SDS011;18457;52.432;16.914;2023-05-07T14:51:01;5.00;;;2.90;;
31910;SDS011;18457;52.432;16.914;2023-05-07T14:53:33;6.80;;;3.00;;
31910;SDS011;18457;52.432;16.914;2023-05-07T14:56:05;4.80;;;3.20;;
31910;SDS011;18457;52.432;16.914;2023-05-07T14:58:37;5.00;;;2.60;;
31910;SDS011;18457;52.432;16.914;2023-05-07T15:01:09;6.50;;;2.80;;
31910;SDS011;18457;52.432;16.914;2023-05-07T15:03:41;7.30;;;2.80;;
31910;SDS011;18457;52.432;16.914;2023-05-07T15:06:13;5.70;;;3.20;;
31910;SDS011;18457;52.432;16.914;2023-05-07T15:08:45;8.60;;;3.30;;
31910;SDS011;18457;52.432;16.914;2023-05-07T15:11:17;5.50;;;2.90;;
31910;SDS011;18457;52.432;16.914;2023-05-07T15:13:49;5.80;;;2.90;;
31910;SDS011;18457;52.432;16.914;2023-05-07T15:16:20;4.70;;;3.20;;
31910;SDS011;18457;52.432;16.914;2023-05-07T15:18:52;4.40;;;2.90;;
31910;SDS011;18457;52.432;16.914;2023-05-07T15:21:24;5.20;;;2.70;;
31910;SDS011;18457;52.432;16.914;2023-05-07T15:23:56;3.30;;;2.40;;
31910;SDS011;18457;52.432;16.914;2023-05-07T15:26:28;5.00;;;3.30;;
31910;SDS011;18457;52.432;16.914;2023-05-07T15:29:00;6.90;;;2.70;;
31910;SDS011;18457;52.432;16.914;2023-05-07T15:31:37;8.30;;;2.80;;
31910;SDS011;18457;52.432;16.914;2023-05-07T15:34:09;5.60;;;3.00;;